Time;durP1;ratioP1;P1;durP2;ratioP2;P2;SDS_P1;SDS_P2;PMS_P1;PMS_P2;Temp;Humidity;BMP_temperature;BMP_pressure;BME280_temperature;BME280_humidity;BME280_pressure;Samples;Min_cycle;Max_cycle;Signal;HPM_P1;HPM_P2
2023/03/08 00:04:41;;;;;;;2.20;2.00;;;;;;;15.57;43.61;95434.75;10326820;28;20032;-32
2023/03/08 00:09:41;;;;;;;3.93;2.47;;;;;;;15.56;43.63;95423.00;10341856;28;20041;-31
2023/03/08 00:14:42;;;;;;;4.30;2.67;;;;;;;15.57;43.29;95411.19;10350395;28;20541;-31
2023/03/08 00:19:42;;;;;;;3.47;2.67;;;;;;;15.57;43.46;95418.75;10354885;28;20036;-31
2023/03/08 00:24:43;;;;;;;3.20;2.80;;;;;;;15.60;43.33;95408.66;10343969;28;20042;-31
2023/03/08 00:29:43;;;;;;;3.97;2.78;;;;;;;15.56;43.11;95400.28;10342796;28;20038;-31
2023/03/08 00:34:45;;;;;;;3.83;2.40;;;;;;;15.57;42.81;95403.63;10359413;28;20095;-31
2023/03/08 00:39:51;;;;;;;2.92;2.38;;;;;;;15.61;43.04;95403.59;10315015;28;20473;-31
2023/03/08 00:44:51;;;;;;;3.80;2.35;;;;;;;15.58;43.22;95410.34;10307575;28;20068;-31
2023/03/08 00:49:52;;;;;;;2.70;2.40;;;;;;;15.58;42.59;95408.66;10296031;28;20520;-32
2023/03/08 00:54:52;;;;;;;3.57;2.53;;;;;;;15.57;42.89;95396.06;10323345;28;20770;-31
2023/03/08 00:59:52;;;;;;;2.90;2.50;;;;;;;15.55;42.60;95380.97;10316603;28;20129;-30
2023/03/08 01:04:53;;;;;;;3.80;2.25;;;;;;;15.56;42.70;95370.03;10334849;28;20034;-31
2023/03/08 01:09:55;;;;;;;3.50;2.42;;;;;;;15.55;42.93;95343.13;10342517;28;20030;-31
2023/03/08 01:14:56;;;;;;;3.35;2.30;;;;;;;15.61;43.43;95327.91;10318073;28;20439;-31
2023/03/08 01:19:57;;;;;;;2.33;2.13;;;;;;;15.61;43.93;95332.94;10304884;28;20552;-31
2023/03/08 01:24:57;;;;;;;2.90;2.33;;;;;;;15.64;42.83;95335.47;10359363;28;20034;-31
2023/03/08 01:29:57;;;;;;;3.07;2.70;;;;;;;15.57;43.49;95303.59;10337966;28;20038;-31
2023/03/08 01:35:03;;;;;;;2.23;2.03;;;;;;;15.51;43.44;95273.38;10323327;28;20053;-30
2023/03/08 01:40:04;;;;;;;3.95;2.63;;;;;;;15.50;43.53;95279.28;10328528;28;20030;-31
2023/03/08 01:45:25;;;;;;;3.70;2.22;;;;;;;15.50;43.30;95284.31;10323366;28;20697;-31
2023/03/08 01:50:26;;;;;;;3.60;2.92;;;;;;;15.50;43.26;95289.38;10319779;28;20030;-31
2023/03/08 01:55:27;;;;;;;2.88;2.15;;;;;;;15.50;43.36;95298.63;10326042;28;20433;-30
2023/03/08 02:00:29;;;;;;;4.97;2.55;;;;;;;15.49;43.38;95305.38;10322766;28;20490;-31
2023/03/08 02:05:31;;;;;;;3.22;2.55;;;;;;;15.49;43.11;95291.91;10320265;28;20030;-31
2023/03/08 02:10:40;;;;;;;2.95;2.30;;;;;;;15.48;43.09;95275.09;10329405;28;20176;-30
2023/03/08 02:15:41;;;;;;;2.88;2.28;;;;;;;15.48;43.17;95267.53;10352752;28;20072;-31
2023/03/08 02:20:42;;;;;;;4.35;2.40;;;;;;;15.47;43.02;95244.03;10333440;28;20031;-35
2023/03/08 02:25:49;;;;;;;2.83;2.50;;;;;;;15.46;43.17;95224.69;10307788;28;20026;-31
2023/03/08 02:30:49;;;;;;;2.88;1.98;;;;;;;15.47;42.83;95212.91;10341935;28;20504;-30
2023/03/08 02:35:50;;;;;;;2.88;2.05;;;;;;;15.46;43.28;95201.97;10321005;28;20037;-30
2023/03/08 02:40:51;;;;;;;2.70;2.22;;;;;;;15.53;43.50;95187.63;10325342;28;20145;-31
2023/03/08 02:45:52;;;;;;;3.28;2.17;;;;;;;15.50;43.15;95173.38;10312864;28;20035;-31
2023/03/08 02:50:52;;;;;;;2.60;2.20;;;;;;;15.53;42.71;95165.75;10320962;28;20609;-31
2023/03/08 02:55:53;;;;;;;2.20;1.95;;;;;;;15.47;42.95;95163.34;10361234;28;20301;-31
2023/03/08 03:00:53;;;;;;;3.13;2.40;;;;;;;15.45;43.19;95144.84;10309850;28;20034;-31
2023/03/08 03:05:54;;;;;;;3.17;2.42;;;;;;;15.44;43.41;95148.22;10338892;28;20026;-31
2023/03/08 03:11:01;;;;;;;2.88;2.60;;;;;;;15.45;42.70;95144.84;10314540;28;20034;-31
2023/03/08 03:16:10;;;;;;;3.17;2.22;;;;;;;15.46;42.47;95141.47;10347477;28;20060;-31
2023/03/08 03:21:12;;;;;;;2.58;2.38;;;;;;;15.49;42.36;95125.47;10357269;28;20042;-31
2023/03/08 03:26:20;;;;;;;2.65;2.40;;;;;;;15.48;42.42;95104.47;10315724;28;20033;-31
2023/03/08 03:31:25;;;;;;;3.28;2.25;;;;;;;15.49;42.17;95095.22;10331359;28;20091;-31
2023/03/08 03:36:26;;;;;;;2.78;2.45;;;;;;;15.52;42.54;95090.94;10307881;28;20061;-31
2023/03/08 03:41:26;;;;;;;3.25;2.60;;;;;;;15.50;42.21;95087.63;10342723;28;20037;-31
2023/03/08 03:46:35;;;;;;;3.63;2.30;;;;;;;15.47;42.42;95077.59;10342514;28;21406;-31
2023/03/08 03:51:38;;;;;;;3.00;2.33;;;;;;;15.46;42.48;95070.03;10329957;28;20402;-31
2023/03/08 03:56:47;;;;;;;2.42;2.20;;;;;;;15.49;41.95;95075.88;10331419;28;20457;-32
2023/03/08 04:01:48;;;;;;;2.70;2.10;;;;;;;15.54;42.59;95075.81;10351534;28;20089;-32
2023/03/08 04:06:59;;;;;;;4.22;2.50;;;;;;;15.50;42.56;95067.47;10337727;28;20036;-30
2023/03/08 04:12:05;;;;;;;2.78;2.38;;;;;;;15.54;42.73;95078.34;10315617;28;20054;-30
2023/03/08 04:17:07;;;;;;;3.65;2.17;;;;;;;15.52;42.21;95065.72;10319884;28;20105;-31
2023/03/08 04:22:16;;;;;;;3.65;2.92;;;;;;;15.49;42.52;95054.84;10345508;28;20524;-32
2023/03/08 04:27:29;;;;;;;3.53;2.40;;;;;;;15.46;42.29;95052.41;10318368;28;20122;-31
2023/03/08 04:32:31;;;;;;;3.35;2.38;;;;;;;15.44;42.49;95037.28;10338557;28;20125;-31
2023/03/08 04:37:32;;;;;;;3.63;1.98;;;;;;;15.43;42.77;95045.69;10323845;28;20022;-30
2023/03/08 04:42:41;;;;;;;2.10;1.90;;;;;;;15.41;42.69;95041.53;10328523;28;20037;-31
2023/03/08 04:47:43;;;;;;;2.78;2.45;;;;;;;15.42;42.61;95028.91;10331133;28;20460;-31
2023/03/08 04:52:45;;;;;;;3.30;2.90;;;;;;;15.44;42.26;95018.81;10326476;28;20129;-32
2023/03/08 04:57:46;;;;;;;2.60;2.40;;;;;;;15.44;42.49;95001.97;10329486;28;20032;-31
2023/03/08 05:02:46;;;;;;;3.22;2.50;;;;;;;15.49;42.17;94990.16;10330587;28;20034;-31
2023/03/08 05:07:50;;;;;;;3.25;2.40;;;;;;;15.54;41.58;94988.38;10323450;28;20030;-30
2023/03/08 05:12:51;;;;;;;3.33;2.17;;;;;;;15.57;41.86;94985.81;10297870;28;20030;-31
2023/03/08 05:17:52;;;;;;;3.40;2.60;;;;;;;15.62;41.24;94980.69;10336455;28;20025;-31
2023/03/08 05:22:52;;;;;;;2.90;2.53;;;;;;;15.62;40.82;94976.47;10350916;28;20290;-32
2023/03/08 05:27:53;;;;;;;3.10;1.83;;;;;;;15.64;41.87;94973.91;10325155;28;20060;-33
2023/03/08 05:32:55;;;;;;;2.10;1.90;;;;;;;15.58;41.80;94952.16;10334389;28;20346;-32
2023/03/08 05:37:56;;;;;;;2.90;2.47;;;;;;;15.63;41.04;94950.41;10317534;28;20454;-31
2023/03/08 05:42:59;;;;;;;4.00;2.60;;;;;;;15.60;40.03;94940.34;10296847;28;20018;-31
2023/03/08 05:48:01;;;;;;;2.90;2.25;;;;;;;15.60;40.71;94927.75;10327380;28;20038;-31
2023/03/08 05:53:05;;;;;;;3.20;2.63;;;;;;;15.53;42.12;94915.28;10329872;28;20045;-32
2023/03/08 05:58:06;;;;;;;4.68;2.83;;;;;;;15.53;40.85;94912.75;10305907;28;20038;-32
2023/03/08 06:03:06;;;;;;;3.10;2.50;;;;;;;15.61;41.65;94913.47;10314471;28;20083;-31
2023/03/08 06:08:09;;;;;;;4.63;2.83;;;;;;;15.62;41.72;94900.78;10320995;28;20292;-31
2023/03/08 06:13:10;;;;;;;7.05;3.40;;;;;;;15.63;42.38;94902.50;10327535;28;20516;-32
2023/03/08 06:18:11;;;;;;;3.78;2.63;;;;;;;15.64;42.94;94910.88;10326763;28;20038;-32
2023/03/08 06:23:11;;;;;;;6.00;2.75;;;;;;;15.61;43.61;94889.03;10347314;28;20026;-31
2023/03/08 06:28:12;;;;;;;11.73;4.60;;;;;;;15.55;41.42;94863.97;10332360;28;20026;-36
2023/03/08 06:33:19;;;;;;;5.32;4.05;;;;;;;15.18;38.65;94862.09;10306193;28;20532;-31
2023/03/08 06:38:19;;;;;;;6.40;3.67;;;;;;;15.32;40.41;94866.06;10317973;28;20039;-29
2023/03/08 06:43:20;;;;;;;6.70;3.30;;;;;;;15.42;41.99;94861.66;10317511;28;20101;-29
2023/03/08 06:48:21;;;;;;;5.03;3.53;;;;;;;15.44;42.23;94853.22;10317271;28;20344;-29
2023/03/08 06:53:23;;;;;;;4.53;3.30;;;;;;;15.47;42.51;94850.66;10335871;28;20503;-29
2023/03/08 06:58:35;;;;;;;9.05;3.30;;;;;;;15.45;42.59;94839.75;10332699;28;20049;-29
2023/03/08 07:03:36;;;;;;;3.90;2.70;;;;;;;15.50;41.99;94845.56;10341620;28;20034;-29
2023/03/08 07:08:40;;;;;;;3.88;2.92;;;;;;;15.46;41.88;94831.31;10356695;28;20038;-29
2023/03/08 07:13:40;;;;;;;6.70;3.55;;;;;;;15.44;42.60;94819.63;10332361;28;20039;-29
2023/03/08 07:18:41;;;;;;;7.70;2.90;;;;;;;15.45;41.89;94809.50;10333485;28;20042;-29
2023/03/08 07:23:41;;;;;;;4.37;2.33;;;;;;;15.43;42.24;94801.13;10332418;28;20038;-29
2023/03/08 07:28:41;;;;;;;5.53;2.73;;;;;;;15.45;42.54;94798.59;10347341;28;20034;-30
2023/03/08 07:33:42;;;;;;;4.27;2.47;;;;;;;15.48;40.70;94776.69;10323837;28;20035;-29
2023/03/08 07:38:43;;;;;;;4.37;2.70;;;;;;;15.45;42.00;94776.72;10346483;28;20041;-30
2023/03/08 07:43:44;;;;;;;2.83;2.50;;;;;;;15.43;42.09;94750.72;10334670;28;20565;-31
2023/03/08 07:48:54;;;;;;;4.30;2.20;;;;;;;15.42;41.95;94751.56;10352802;28;20033;-32
2023/03/08 07:53:54;;;;;;;5.37;2.57;;;;;;;15.43;41.98;94742.34;10342587;28;20034;-31
2023/03/08 07:58:56;;;;;;;3.77;2.33;;;;;;;15.43;42.08;94743.16;10362874;28;20441;-31
2023/03/08 08:03:58;;;;;;;3.85;2.03;;;;;;;15.45;41.68;94721.25;10336114;28;20022;-31
2023/03/08 08:08:58;;;;;;;3.33;2.38;;;;;;;15.46;42.12;94717.06;10359348;28;20033;-31
2023/03/08 08:14:02;;;;;;;5.53;2.13;;;;;;;15.54;41.92;94705.94;10350162;28;20033;-32
2023/03/08 08:19:03;;;;;;;2.72;2.08;;;;;;;15.55;42.24;94722.75;10331001;28;20038;-32
2023/03/08 08:24:06;;;;;;;2.07;1.83;;;;;;;15.55;41.96;94729.47;10358723;28;20030;-31
2023/03/08 08:29:07;;;;;;;3.03;1.67;;;;;;;15.52;41.67;94717.75;10324474;28;20372;-32
2023/03/08 08:34:07;;;;;;;3.42;2.10;;;;;;;15.51;42.06;94713.56;10323406;28;20037;-32
2023/03/08 08:39:07;;;;;;;1.63;1.48;;;;;;;15.52;41.55;94687.50;10362167;28;20030;-31
2023/03/08 08:44:08;;;;;;;3.03;2.20;;;;;;;15.50;41.92;94699.31;10337344;28;20112;-32
2023/03/08 08:49:09;;;;;;;2.40;1.48;;;;;;;15.53;42.20;94675.72;10331094;28;20169;-32
2023/03/08 08:54:10;;;;;;;2.10;1.90;;;;;;;15.55;42.67;94702.56;10307689;28;20039;-31
2023/03/08 08:59:11;;;;;;;1.93;1.50;;;;;;;15.51;42.95;94700.97;10328637;28;20572;-31
2023/03/08 09:04:15;;;;;;;1.67;1.40;;;;;;;15.52;42.79;94717.75;10339720;28;20044;-31
2023/03/08 09:09:17;;;;;;;2.08;1.70;;;;;;;15.51;43.07;94716.09;10361829;28;20548;-31
2023/03/08 09:14:17;;;;;;;1.92;1.73;;;;;;;15.49;43.34;94727.91;10339246;28;20027;-31
2023/03/08 09:19:17;;;;;;;1.63;1.53;;;;;;;15.48;43.45;94725.41;10328442;28;20045;-31
2023/03/08 09:24:18;;;;;;;2.37;1.43;;;;;;;15.50;43.20;94731.25;10330267;28;20284;-32
2023/03/08 09:29:18;;;;;;;2.00;1.40;;;;;;;15.48;43.48;94725.41;10343477;28;20300;-31
2023/03/08 09:34:18;;;;;;;1.93;1.73;;;;;;;15.45;43.86;94735.56;10352849;28;20030;-31
2023/03/08 09:39:19;;;;;;;1.97;1.50;;;;;;;15.49;43.91;94740.50;10336020;28;20046;-31
2023/03/08 09:44:48;;;;;;;1.88;1.42;;;;;;;15.50;44.58;94744.69;10327651;28;20682;-31
2023/03/08 09:49:53;;;;;;;1.67;1.30;;;;;;;15.53;43.67;94743.81;10351380;28;20119;-31
2023/03/08 09:54:53;;;;;;;2.08;1.20;;;;;;;15.50;44.11;94734.59;10341043;28;20033;-32
2023/03/08 09:59:55;;;;;;;1.40;1.30;;;;;;;15.46;44.02;94752.34;10343148;28;20042;-31
2023/03/08 10:05:04;;;;;;;1.75;1.20;;;;;;;15.47;44.28;94756.53;10313280;28;20363;-31
2023/03/08 10:10:08;;;;;;;1.70;1.50;;;;;;;15.43;44.63;94768.34;10346977;28;20449;-32
2023/03/08 10:15:15;;;;;;;2.15;1.40;;;;;;;15.42;44.40;94765.84;10320701;28;20046;-32
2023/03/08 10:20:31;;;;;;;2.20;1.65;;;;;;;15.43;44.78;94782.66;10310330;28;20553;-32
2023/03/08 10:25:33;;;;;;;1.52;1.02;;;;;;;15.41;44.53;94785.22;10342372;28;20044;-31
2023/03/08 10:30:39;;;;;;;1.40;1.30;;;;;;;15.41;44.89;94780.16;10343047;28;20104;-31
2023/03/08 10:36:04;;;;;;;1.20;1.10;;;;;;;15.40;44.66;94765.06;10335961;28;20453;-31
2023/03/08 10:41:16;;;;;;;1.65;1.52;;;;;;;15.41;45.14;94787.72;10346811;28;20065;-32
2023/03/08 10:46:20;;;;;;;1.50;1.35;;;;;;;15.40;45.12;94768.44;10347693;28;20034;-31
2023/03/08 10:51:23;;;;;;;1.30;1.10;;;;;;;15.40;45.23;94782.72;10336199;28;20038;-32
2023/03/08 10:56:36;;;;;;;1.75;1.52;;;;;;;15.37;45.43;94778.53;10340981;28;20521;-31
2023/03/08 11:01:48;;;;;;;1.45;1.13;;;;;;;15.48;45.56;94776.69;10358800;28;20045;-32
2023/03/08 11:06:49;;;;;;;1.52;1.17;;;;;;;15.46;45.41;94773.34;10329407;28;20034;-31
2023/03/08 11:11:49;;;;;;;2.20;1.77;;;;;;;15.50;45.62;94777.47;10309551;28;20034;-32
2023/03/08 11:16:59;;;;;;;1.80;1.50;;;;;;;15.50;45.04;94779.16;10342188;28;20107;-32
2023/03/08 11:22:08;;;;;;;1.48;1.30;;;;;;;15.52;45.03;94788.34;10340496;28;20116;-31
2023/03/08 11:27:36;;;;;;;1.35;1.25;;;;;;;15.55;44.81;94788.31;10329072;28;20552;-32
2023/03/08 11:32:59;;;;;;;1.80;1.27;;;;;;;15.55;44.91;94763.09;10345709;28;20522;-31
2023/03/08 11:38:21;;;;;;;3.97;1.30;;;;;;;15.55;45.41;94775.69;10342309;28;20573;-31
2023/03/08 11:43:44;;;;;;;1.55;1.15;;;;;;;15.61;45.18;94787.34;10354593;28;20072;-31
2023/03/08 11:48:56;;;;;;;1.10;1.00;;;;;;;15.58;45.18;94773.09;10346593;28;20128;-32
2023/03/08 11:54:08;;;;;;;2.55;1.05;;;;;;;15.59;45.42;94774.75;10353742;28;20081;-33
2023/03/08 11:59:11;;;;;;;1.08;0.98;;;;;;;15.60;45.43;94770.56;10357932;28;20030;-31
2023/03/08 12:04:17;;;;;;;1.10;1.00;;;;;;;15.62;45.01;94773.88;10326686;28;20093;-33
2023/03/08 12:09:24;;;;;;;1.10;1.02;;;;;;;15.64;45.02;94775.53;10334456;28;20047;-32
2023/03/08 12:14:30;;;;;;;1.40;1.10;;;;;;;15.66;44.88;94771.25;10334122;28;20034;-31
2023/03/08 12:19:48;;;;;;;2.85;1.10;;;;;;;15.66;45.05;94781.34;10329944;28;20039;-31
2023/03/08 12:24:55;;;;;;;4.50;1.38;;;;;;;15.60;47.44;94773.09;10322525;28;20490;-31
2023/03/08 12:30:18;;;;;;;4.65;1.40;;;;;;;15.61;48.44;94777.28;10314774;28;20030;-32
2023/03/08 12:35:22;;;;;;;3.33;1.80;;;;;;;15.62;47.91;94757.03;10320023;28;20035;-32
2023/03/08 12:40:46;;;;;;;2.33;1.33;;;;;;;15.62;47.53;94764.59;10311661;28;20510;-32
2023/03/08 12:45:58;;;;;;;4.80;1.83;;;;;;;15.61;47.27;94757.91;10313605;28;20080;-31
2023/03/08 12:51:05;;;;;;;6.82;2.40;;;;;;;15.61;47.62;94755.38;10307258;28;20518;-32
2023/03/08 12:56:09;;;;;;;3.67;1.55;;;;;;;15.61;46.87;94750.34;10329625;28;20037;-34
2023/03/08 13:01:33;;;;;;;3.60;1.60;;;;;;;15.63;47.85;94766.28;10321145;28;20065;-31
2023/03/08 13:06:48;;;;;;;4.70;1.92;;;;;;;15.61;48.10;94752.03;10317168;28;20578;-32
2023/03/08 13:11:58;;;;;;;7.00;2.38;;;;;;;15.62;48.63;94761.28;10303788;28;20495;-32
2023/03/08 13:16:59;;;;;;;4.47;2.30;;;;;;;15.62;48.87;94761.28;10330869;28;20431;-31
2023/03/08 13:22:07;;;;;;;6.20;2.37;;;;;;;15.58;48.00;94722.69;10336319;28;20042;-31
2023/03/08 13:27:38;;;;;;;7.85;2.75;;;;;;;15.64;48.81;94732.66;10316287;28;20030;-31
2023/03/08 13:32:40;;;;;;;9.40;3.80;;;;;;;15.62;50.38;94753.72;10367320;28;20046;-32
2023/03/08 13:37:41;;;;;;;13.23;2.78;;;;;;;15.62;50.41;94743.63;10327058;28;20041;-32
2023/03/08 13:42:53;;;;;;;9.20;2.25;;;;;;;15.62;50.03;94729.28;10348320;28;20390;-31
2023/03/08 13:47:57;;;;;;;15.23;2.90;;;;;;;15.63;52.32;94725.09;10327592;28;20046;-32
2023/03/08 13:53:00;;;;;;;10.43;3.63;;;;;;;15.62;52.60;94709.13;10334812;28;20456;-32
2023/03/08 13:58:01;;;;;;;8.50;2.50;;;;;;;15.65;51.31;94696.47;10341623;28;20041;-31
2023/03/08 14:03:07;;;;;;;9.27;1.98;;;;;;;15.64;50.71;94699.84;10359765;28;20124;-32
2023/03/08 14:08:18;;;;;;;10.65;2.75;;;;;;;15.65;50.76;94683.00;10325644;28;20034;-31
2023/03/08 14:13:27;;;;;;;8.63;2.10;;;;;;;15.59;50.50;94698.25;10333250;28;20045;-32
2023/03/08 14:18:37;;;;;;;3.67;1.90;;;;;;;15.62;50.54;94681.38;10321584;28;20085;-31
2023/03/08 14:23:41;;;;;;;7.43;1.80;;;;;;;15.63;50.45;94680.53;10325836;28;20031;-32
2023/03/08 14:28:42;;;;;;;4.32;1.80;;;;;;;15.63;50.32;94667.94;10320236;28;20096;-31
2023/03/08 14:33:42;;;;;;;7.68;1.83;;;;;;;15.63;49.87;94654.47;10341198;28;20048;-31
2023/03/08 14:38:47;;;;;;;5.18;1.85;;;;;;;15.63;49.47;94670.47;10334648;28;20054;-31
2023/03/08 14:43:49;;;;;;;7.63;2.05;;;;;;;15.62;49.14;94661.22;10338315;28;20026;-32
2023/03/08 14:49:02;;;;;;;5.15;1.90;;;;;;;15.61;49.34;94646.94;10342315;28;20553;-32
2023/03/08 14:54:04;;;;;;;4.00;1.73;;;;;;;15.62;49.93;94653.63;10362930;28;20500;-33
2023/03/08 14:59:08;;;;;;;3.20;1.83;;;;;;;15.62;50.25;94643.56;10336490;28;20043;-31
2023/03/08 15:04:18;;;;;;;6.45;2.65;;;;;;;15.63;48.98;94640.19;10325943;28;20034;-32
2023/03/08 15:09:20;;;;;;;4.75;2.08;;;;;;;15.63;52.16;94625.06;10329886;28;20558;-31
2023/03/08 15:14:21;;;;;;;8.77;1.98;;;;;;;15.62;52.36;94643.56;10346283;28;20082;-32
2023/03/08 15:19:21;;;;;;;3.57;1.87;;;;;;;15.65;51.64;94643.50;10321220;28;20042;-31
2023/03/08 15:24:22;;;;;;;4.30;1.47;;;;;;;15.62;50.08;94623.38;10316609;28;20026;-32
2023/03/08 15:29:28;;;;;;;4.75;1.50;;;;;;;15.65;50.26;94625.00;10339019;28;20022;-31
2023/03/08 15:34:28;;;;;;;3.70;1.80;;;;;;;15.61;50.02;94610.81;10362521;28;20034;-31
2023/03/08 15:39:29;;;;;;;2.33;1.20;;;;;;;15.61;49.83;94614.16;10341115;28;20042;-32
2023/03/08 15:44:29;;;;;;;5.33;1.60;;;;;;;15.62;49.63;94604.91;10320886;28;20030;-32
2023/03/08 15:49:29;;;;;;;2.63;1.23;;;;;;;15.62;50.65;94613.28;10315965;28;20041;-31
2023/03/08 15:54:30;;;;;;;3.20;2.33;;;;;;;15.63;50.84;94630.09;10318005;28;20037;-32
2023/03/08 15:59:31;;;;;;;2.20;1.50;;;;;;;15.61;50.66;94626.78;10341891;28;20041;-32
2023/03/08 16:04:31;;;;;;;2.60;1.50;;;;;;;15.62;50.56;94630.94;10330691;28;20140;-32
2023/03/08 16:09:31;;;;;;;3.27;1.63;;;;;;;15.60;50.71;94629.34;10349707;28;20304;-31
2023/03/08 16:14:32;;;;;;;2.57;1.17;;;;;;;15.60;50.47;94632.69;10338128;28;20039;-32
2023/03/08 16:19:33;;;;;;;1.75;1.15;;;;;;;15.58;50.17;94611.72;10336051;28;20605;-32
2023/03/08 16:24:34;;;;;;;2.45;1.50;;;;;;;15.58;50.53;94623.47;10344896;28;20433;-31
2023/03/08 16:29:34;;;;;;;4.18;1.77;;;;;;;15.61;51.25;94633.53;10342767;28;20052;-31
2023/03/08 16:34:35;;;;;;;2.80;1.15;;;;;;;15.65;51.64;94612.41;10329916;28;20042;-31
2023/03/08 16:39:35;;;;;;;3.30;1.30;;;;;;;15.64;51.75;94641.00;10337852;28;20470;-31
2023/03/08 16:44:35;;;;;;;4.10;1.13;;;;;;;15.65;51.60;94638.47;10334014;28;20740;-31
2023/03/08 16:49:36;;;;;;;5.33;1.33;;;;;;;15.65;50.88;94648.56;10327958;28;20032;-31
2023/03/08 16:54:36;;;;;;;3.50;1.30;;;;;;;15.64;51.05;94646.91;10314255;28;20041;-33
2023/03/08 16:59:39;;;;;;;2.20;1.60;;;;;;;15.58;50.26;94636.94;10349010;28;20103;-31
2023/03/08 17:04:39;;;;;;;3.65;1.80;;;;;;;15.63;50.56;94654.47;10315988;28;20027;-31
2023/03/08 17:09:40;;;;;;;3.63;1.48;;;;;;;15.60;50.54;94662.94;10332565;28;20038;-32
2023/03/08 17:14:42;;;;;;;7.57;1.75;;;;;;;15.62;51.08;94657.88;10329716;28;20040;-31
2023/03/08 17:19:45;;;;;;;3.33;1.40;;;;;;;15.62;50.27;94656.16;10358653;28;20057;-31
2023/03/08 17:24:45;;;;;;;2.17;1.27;;;;;;;15.63;50.04;94655.31;10333878;28;20030;-31
2023/03/08 17:29:45;;;;;;;3.87;1.37;;;;;;;15.62;50.84;94647.78;10336825;28;20041;-32
2023/03/08 17:34:46;;;;;;;3.33;1.67;;;;;;;15.60;50.46;94609.97;10351966;28;20371;-31
2023/03/08 17:39:46;;;;;;;2.60;1.40;;;;;;;15.60;50.62;94624.31;10349245;28;20466;-32
2023/03/08 17:44:46;;;;;;;4.70;2.73;;;;;;;15.58;50.88;94639.47;10307363;28;20296;-32
2023/03/08 17:49:48;;;;;;;5.43;1.80;;;;;;;15.59;50.32;94631.03;10310012;28;20859;-31
2023/03/08 17:54:48;;;;;;;5.47;1.40;;;;;;;15.66;50.73;94644.31;10349135;28;20034;-32
2023/03/08 17:59:51;;;;;;;6.22;1.65;;;;;;;15.67;52.07;94641.78;10346911;28;20022;-32
2023/03/08 18:04:52;;;;;;;3.28;1.60;;;;;;;15.66;51.65;94606.47;10333829;28;20494;-31
2023/03/08 18:09:53;;;;;;;2.70;1.67;;;;;;;15.69;49.19;94622.38;10334891;28;20124;-32
2023/03/08 18:14:53;;;;;;;3.57;1.20;;;;;;;15.68;50.79;94623.25;10318162;28;20073;-31
2023/03/08 18:19:54;;;;;;;6.40;1.90;;;;;;;15.70;51.49;94608.91;10343025;28;20333;-31
2023/03/08 18:24:54;;;;;;;4.23;1.30;;;;;;;15.69;51.14;94619.84;10332810;28;20285;-31
2023/03/08 18:29:55;;;;;;;9.23;1.87;;;;;;;15.70;51.89;94656.81;10353269;28;20184;-32
2023/03/08 18:34:55;;;;;;;8.95;2.65;;;;;;;15.70;52.30;94615.66;10352933;28;20037;-31
2023/03/08 18:39:56;;;;;;;11.67;1.93;;;;;;;15.73;52.20;94611.38;10358147;28;20030;-32
2023/03/08 18:44:56;;;;;;;9.95;2.03;;;;;;;15.68;50.24;94632.53;10358669;28;20054;-32
2023/03/08 18:49:57;;;;;;;7.30;2.67;;;;;;;15.67;50.90;94624.13;10351532;28;20121;-32
2023/03/08 18:54:57;;;;;;;13.03;2.47;;;;;;;15.74;53.45;94639.94;10318839;28;20443;-32
2023/03/08 18:59:57;;;;;;;9.73;1.97;;;;;;;15.74;52.73;94642.47;10320225;28;20325;-32
2023/03/08 19:04:58;;;;;;;6.77;2.27;;;;;;;15.77;52.54;94634.84;10328589;28;20277;-31
2023/03/08 19:10:00;;;;;;;5.77;1.77;;;;;;;15.74;52.33;94623.13;10318131;28;20037;-32
2023/03/08 19:15:00;;;;;;;5.25;1.60;;;;;;;15.73;53.76;94628.19;10345917;28;20041;-31
2023/03/08 19:20:01;;;;;;;11.82;2.95;;;;;;;15.73;53.74;94606.34;10334011;28;20045;-35
2023/03/08 19:25:04;;;;;;;12.05;1.95;;;;;;;15.75;52.87;94622.25;10311946;28;20549;-32
2023/03/08 19:30:05;;;;;;;11.25;2.38;;;;;;;15.79;52.76;94635.63;10337041;28;20045;-32
2023/03/08 19:35:06;;;;;;;9.45;2.28;;;;;;;15.77;52.37;94623.03;10321403;28;20045;-32
2023/03/08 19:40:08;;;;;;;7.35;1.92;;;;;;;15.79;52.04;94633.91;10299801;28;20848;-32
2023/03/08 19:45:09;;;;;;;8.10;1.85;;;;;;;15.75;52.06;94604.59;10320753;28;20119;-31
2023/03/08 19:50:12;;;;;;;8.45;1.83;;;;;;;15.78;52.83;94649.91;10300809;28;20134;-32
2023/03/08 19:55:12;;;;;;;11.65;1.90;;;;;;;15.79;52.66;94654.09;10323599;28;20038;-31
2023/03/08 20:00:13;;;;;;;7.47;2.13;;;;;;;15.80;52.83;94642.31;10352684;28;20426;-32
2023/03/08 20:05:14;;;;;;;6.60;1.63;;;;;;;15.76;54.42;94664.25;10330737;28;20033;-31
2023/03/08 20:10:16;;;;;;;4.43;1.90;;;;;;;15.73;54.98;94635.75;10322649;28;20041;-32
2023/03/08 20:15:16;;;;;;;10.02;2.00;;;;;;;15.73;55.71;94669.38;10358275;28;20045;-32
2023/03/08 20:20:17;;;;;;;2.70;1.50;;;;;;;15.74;55.53;94678.63;10359712;28;20107;-32
2023/03/08 20:25:17;;;;;;;4.47;1.75;;;;;;;15.73;55.49;94661.81;10321798;28;20487;-32
2023/03/08 20:30:17;;;;;;;6.67;1.60;;;;;;;15.74;55.20;94657.59;10358930;28;20592;-31
2023/03/08 20:35:18;;;;;;;4.80;1.63;;;;;;;15.75;57.00;94666.81;10331319;28;20042;-32
2023/03/08 20:40:19;;;;;;;3.65;1.92;;;;;;;15.71;57.25;94668.56;10334173;28;20716;-32
2023/03/08 20:45:22;;;;;;;3.30;1.73;;;;;;;15.74;56.31;94697.94;10345483;28;20083;-31
2023/03/08 20:50:24;;;;;;;5.90;1.65;;;;;;;15.76;55.80;94696.25;10325885;28;20559;-32
2023/03/08 20:55:25;;;;;;;4.65;1.50;;;;;;;15.75;55.35;94675.22;10340278;28;20121;-32
2023/03/08 21:00:25;;;;;;;4.57;2.03;;;;;;;15.76;55.18;94686.16;10327751;28;20050;-32
2023/03/08 21:05:25;;;;;;;3.77;2.03;;;;;;;15.78;54.85;94654.16;10338238;28;20026;-32
2023/03/08 21:10:26;;;;;;;3.00;1.53;;;;;;;15.77;54.57;94691.16;10346241;28;20302;-33
2023/03/08 21:15:27;;;;;;;5.30;1.65;;;;;;;15.77;55.03;94683.56;10331419;28;20336;-31
2023/03/08 21:20:27;;;;;;;4.93;1.42;;;;;;;15.76;54.98;94661.75;10343440;28;20070;-32
2023/03/08 21:25:28;;;;;;;3.40;1.27;;;;;;;15.77;54.05;94678.53;10328008;28;20546;-31
2023/03/08 21:30:29;;;;;;;2.72;1.20;;;;;;;15.76;54.67;94669.31;10295765;28;20554;-32
2023/03/08 21:35:29;;;;;;;4.78;1.58;;;;;;;15.76;54.21;94656.69;10293892;28;20070;-31
2023/03/08 21:40:33;;;;;;;3.20;1.50;;;;;;;15.75;54.61;94649.16;10294681;28;20065;-31
2023/03/08 21:45:40;;;;;;;4.35;1.20;;;;;;;15.77;54.29;94668.44;10297348;28;20018;-32
2023/03/08 21:50:41;;;;;;;5.38;1.52;;;;;;;15.76;54.28;94669.31;10330144;28;20132;-32
2023/03/08 21:55:41;;;;;;;5.07;1.40;;;;;;;15.75;54.62;94687.84;10335899;28;20157;-32
2023/03/08 22:00:41;;;;;;;4.43;1.80;;;;;;;15.75;55.87;94665.13;10299530;28;20065;-31
2023/03/08 22:05:42;;;;;;;4.20;1.23;;;;;;;15.76;55.59;94674.34;10289667;28;20113;-31
2023/03/08 22:10:42;;;;;;;4.20;1.67;;;;;;;15.76;55.02;94668.50;10291729;28;20038;-31
2023/03/08 22:15:43;;;;;;;7.73;1.50;;;;;;;15.75;55.11;94646.63;10287157;28;20357;-31
2023/03/08 22:20:43;;;;;;;4.17;1.70;;;;;;;15.72;54.26;94636.63;10297852;28;20035;-31
2023/03/08 22:25:43;;;;;;;2.00;1.13;;;;;;;15.75;54.72;94644.09;10294873;28;20491;-30
2023/03/08 22:30:44;;;;;;;3.47;1.30;;;;;;;15.72;54.71;94639.16;10290929;28;20035;-31
2023/03/08 22:35:45;;;;;;;3.17;1.23;;;;;;;15.71;54.69;94618.13;10293038;28;20026;-31
2023/03/08 22:40:46;;;;;;;6.85;1.60;;;;;;;15.70;54.77;94611.44;10304703;28;20038;-31
2023/03/08 22:45:46;;;;;;;5.77;1.93;;;;;;;15.70;53.97;94615.66;10294820;28;20034;-31
2023/03/08 22:50:46;;;;;;;3.97;1.07;;;;;;;15.67;54.72;94619.06;10297708;28;20034;-32
2023/03/08 22:55:47;;;;;;;5.90;1.50;;;;;;;15.67;54.77;94605.63;10294856;28;20117;-32
2023/03/08 23:00:47;;;;;;;6.40;1.47;;;;;;;15.68;55.05;94592.97;10287283;28;20235;-31
2023/03/08 23:05:48;;;;;;;3.53;1.40;;;;;;;15.69;54.54;94583.75;10288915;28;20054;-31
2023/03/08 23:10:48;;;;;;;2.33;1.00;;;;;;;15.66;54.95;94592.19;10288590;28;20278;-32
2023/03/08 23:15:49;;;;;;;3.03;1.43;;;;;;;15.64;54.74;94578.81;10295270;28;20042;-31
2023/03/08 23:20:49;;;;;;;8.10;1.45;;;;;;;15.70;55.65;94555.13;10298145;28;20038;-31
2023/03/08 23:25:50;;;;;;;4.57;1.90;;;;;;;15.73;55.55;94572.69;10298312;28;20023;-31
2023/03/08 23:30:50;;;;;;;5.97;1.38;;;;;;;15.73;55.09;94562.59;10304797;28;20365;-32